createdAt,value
2019-02-22T00:00:44.142Z,36.60
2019-02-22T00:03:12.541Z,37.10
2019-02-22T00:05:40.851Z,37.63
2019-02-22T00:08:09.149Z,36.95
2019-02-22T00:10:37.475Z,37.83
2019-02-22T00:13:05.779Z,36.83
2019-02-22T00:15:36.301Z,38.40
2019-02-22T00:18:04.175Z,37.25
2019-02-22T00:20:32.812Z,37.15
2019-02-22T00:23:01.109Z,39.18
2019-02-22T00:25:29.399Z,39.08
2019-02-22T00:27:57.748Z,38.17
2019-02-22T00:30:26.157Z,39.97
2019-02-22T00:32:54.826Z,38.88
2019-02-22T00:35:23.155Z,39.40
2019-02-22T00:37:51.476Z,40.23
2019-02-22T00:40:20.036Z,38.23
2019-02-22T00:42:50.265Z,40.63
2019-02-22T00:45:18.763Z,40.70
2019-02-22T00:47:47.093Z,41.08
2019-02-22T00:50:15.420Z,41.85
2019-02-22T00:52:43.791Z,40.70
2019-02-22T00:55:12.104Z,41.20
2019-02-22T00:57:40.482Z,41.50
2019-02-22T01:00:09.959Z,42.90
2019-02-22T01:02:38.263Z,43.20
2019-02-22T01:05:06.869Z,40.78
2019-02-22T01:07:35.175Z,42.33
2019-02-22T01:10:03.883Z,42.48
2019-02-22T01:12:32.430Z,43.17
2019-02-22T01:15:01.031Z,41.85
2019-02-22T01:17:29.330Z,41.10
2019-02-22T01:19:57.671Z,41.90
2019-02-22T01:22:25.979Z,42.03
2019-02-22T01:24:54.302Z,42.20
2019-02-22T01:27:22.598Z,42.40
2019-02-22T01:29:50.896Z,42.55
2019-02-22T01:32:19.216Z,41.83
2019-02-22T01:34:47.522Z,44.20
2019-02-22T01:37:16.153Z,41.80
2019-02-22T01:39:44.446Z,42.23
2019-02-22T01:42:12.769Z,42.40
2019-02-22T01:44:41.395Z,41.02
2019-02-22T01:47:09.783Z,41.20
2019-02-22T01:49:38.441Z,40.58
2019-02-22T01:52:06.737Z,42.62
2019-02-22T01:54:35.058Z,41.20
2019-02-22T01:57:03.353Z,39.45
2019-02-22T01:59:31.660Z,39.38
2019-02-22T02:01:59.984Z,39.78
2019-02-22T02:04:28.301Z,39.40
2019-02-22T02:06:56.889Z,38.13
2019-02-22T02:09:25.235Z,40.40
2019-02-22T02:11:53.513Z,39.38
2019-02-22T02:14:21.830Z,41.33
2019-02-22T02:16:50.146Z,39.92
2019-02-22T02:19:18.522Z,39.35
2019-02-22T02:21:47.096Z,40.50
2019-02-22T02:24:15.412Z,40.20
2019-02-22T02:26:43.718Z,38.00
2019-02-22T02:29:12.050Z,39.80
2019-02-22T02:31:40.366Z,39.00
2019-02-22T02:34:08.950Z,40.52
2019-02-22T02:36:37.258Z,40.30
2019-02-22T02:39:07.987Z,39.55
2019-02-22T02:41:36.344Z,38.90
2019-02-22T02:44:04.675Z,39.18
2019-02-22T02:46:33.076Z,38.60
2019-02-22T02:49:01.404Z,39.92
2019-02-22T02:51:29.742Z,39.77
2019-02-22T02:53:58.055Z,40.33
2019-02-22T02:56:26.368Z,38.35
2019-02-22T02:58:54.695Z,37.67
2019-02-22T03:01:23.280Z,38.02
2019-02-22T03:03:51.598Z,38.67
2019-02-22T03:06:21.586Z,37.77
2019-02-22T03:08:49.898Z,39.05
2019-02-22T03:11:21.086Z,38.73
2019-02-22T03:13:48.249Z,38.65
2019-02-22T03:16:16.623Z,39.50
2019-02-22T03:18:44.930Z,36.60
2019-02-22T03:21:13.244Z,38.50
2019-02-22T03:23:41.554Z,37.20
2019-02-22T03:26:09.981Z,39.00
2019-02-22T03:28:38.621Z,37.88
2019-02-22T03:31:06.922Z,37.63
2019-02-22T03:33:35.565Z,38.25
2019-02-22T03:36:03.861Z,38.05
2019-02-22T03:38:32.283Z,37.45
2019-02-22T03:41:00.902Z,38.90
2019-02-22T03:43:29.253Z,38.37
2019-02-22T03:45:57.541Z,38.45
2019-02-22T03:48:25.879Z,38.15
2019-02-22T03:50:54.172Z,37.60
2019-02-22T03:53:30.437Z,38.45
2019-02-22T03:55:58.718Z,38.58
2019-02-22T03:58:27.042Z,37.90
2019-02-22T04:00:55.356Z,38.65
2019-02-22T04:03:23.649Z,36.00
2019-02-22T04:05:51.974Z,37.75
2019-02-22T04:08:20.271Z,35.77
2019-02-22T04:10:48.583Z,36.97
2019-02-22T04:13:16.955Z,36.58
2019-02-22T04:15:45.452Z,36.28
2019-02-22T04:18:13.755Z,35.52
2019-02-22T04:20:42.088Z,35.30
2019-02-22T04:23:10.423Z,34.63
2019-02-22T04:25:38.993Z,34.57
2019-02-22T04:28:07.400Z,34.20
2019-02-22T04:30:37.829Z,33.00
2019-02-22T04:33:05.810Z,33.53
2019-02-22T04:35:34.130Z,32.50
2019-02-22T04:38:02.432Z,34.15
2019-02-22T04:40:30.742Z,34.03
2019-02-22T04:42:59.056Z,34.40
2019-02-22T04:45:27.364Z,31.90
2019-02-22T04:47:55.696Z,33.95
2019-02-22T04:50:23.983Z,33.02
2019-02-22T04:52:52.314Z,33.13
2019-02-22T04:55:20.647Z,34.13
2019-02-22T04:57:49.252Z,34.47
2019-02-22T05:00:17.839Z,34.75
2019-02-22T05:02:46.267Z,35.35
2019-02-22T05:05:15.425Z,35.20
2019-02-22T05:07:43.752Z,34.77
2019-02-22T05:10:12.069Z,34.60
2019-02-22T05:12:40.405Z,33.50
2019-02-22T05:15:12.579Z,35.50
2019-02-22T05:17:38.739Z,33.18
2019-02-22T05:20:07.058Z,34.90
2019-02-22T05:22:35.377Z,34.23
2019-02-22T05:25:04.875Z,34.67
2019-02-22T05:27:33.184Z,34.10
2019-02-22T05:30:01.509Z,32.05
2019-02-22T05:32:29.805Z,33.40
2019-02-22T05:34:58.128Z,33.15
2019-02-22T05:37:26.451Z,33.50
2019-02-22T05:39:55.187Z,33.35
2019-02-22T05:42:23.534Z,32.80
2019-02-22T05:44:51.785Z,32.78
2019-02-22T05:47:20.143Z,34.15
2019-02-22T05:49:48.506Z,49.65
2019-02-22T05:52:16.902Z,34.05
2019-02-22T05:54:45.205Z,31.85
2019-02-22T05:57:14.412Z,31.35
2019-02-22T05:59:42.818Z,31.50
2019-02-22T06:02:14.393Z,31.17
2019-02-22T06:04:41.548Z,31.37
2019-02-22T06:07:09.891Z,32.42
2019-02-22T06:09:38.199Z,31.80
2019-02-22T06:12:06.565Z,32.00
2019-02-22T06:14:35.244Z,32.38
2019-02-22T06:17:13.886Z,31.45
2019-02-22T06:19:33.600Z,31.62
2019-02-22T06:22:01.904Z,30.43
2019-02-22T06:24:30.211Z,31.33
2019-02-22T06:26:58.504Z,32.83
2019-02-22T06:29:26.859Z,33.80
2019-02-22T06:31:55.626Z,33.92
2019-02-22T06:34:24.180Z,33.40
2019-02-22T06:37:01.651Z,32.23
2019-02-22T06:39:23.130Z,34.53
2019-02-22T06:41:51.464Z,32.65
2019-02-22T06:44:19.773Z,34.08
2019-02-22T06:46:48.080Z,33.87
2019-02-22T06:49:16.399Z,32.90
2019-02-22T06:51:44.700Z,33.85
2019-02-22T06:54:13.274Z,33.35
2019-02-22T06:56:41.599Z,32.98
2019-02-22T06:59:09.897Z,32.03
2019-02-22T07:01:38.209Z,33.85
2019-02-22T07:04:06.624Z,34.03
2019-02-22T07:06:34.948Z,33.65
2019-02-22T07:09:06.851Z,32.40
2019-02-22T07:11:37.898Z,32.63
2019-02-22T07:14:06.562Z,31.77
2019-02-22T07:16:34.867Z,30.70
2019-02-22T07:19:03.179Z,31.05
2019-02-22T07:21:43.760Z,30.25
2019-02-22T07:24:02.694Z,29.87
2019-02-22T07:26:31.108Z,30.75
2019-02-22T07:28:59.421Z,30.30
2019-02-22T07:31:27.712Z,30.67
2019-02-22T07:33:56.034Z,30.68
2019-02-22T07:36:24.408Z,29.42
2019-02-22T07:38:52.990Z,30.62
2019-02-22T07:41:21.290Z,30.03
2019-02-22T07:43:49.612Z,29.40
2019-02-22T07:46:17.911Z,30.72
2019-02-22T07:48:46.225Z,29.70
2019-02-22T07:51:14.528Z,30.08
2019-02-22T07:53:42.839Z,30.05
2019-02-22T07:56:11.186Z,29.20
2019-02-22T07:58:39.576Z,29.47
2019-02-22T08:01:07.888Z,30.27
2019-02-22T08:03:37.395Z,30.05
2019-02-22T08:06:05.834Z,30.40
2019-02-22T08:08:34.132Z,29.72
2019-02-22T08:11:02.501Z,30.23
2019-02-22T08:13:30.864Z,29.60
2019-02-22T08:15:59.499Z,29.05
2019-02-22T08:18:27.839Z,28.92
2019-02-22T08:20:56.146Z,27.77
2019-02-22T08:23:24.468Z,28.53
2019-02-22T08:25:53.135Z,28.20
2019-02-22T08:28:21.458Z,28.45
2019-02-22T08:30:49.771Z,26.97
2019-02-22T08:33:18.110Z,27.25
2019-02-22T08:35:46.416Z,25.75
2019-02-22T08:38:14.746Z,26.07
2019-02-22T08:40:43.053Z,25.72
2019-02-22T08:43:11.382Z,26.00
2019-02-22T08:45:39.685Z,26.55
2019-02-22T08:48:08.327Z,26.65
2019-02-22T08:50:36.638Z,25.23
2019-02-22T08:53:04.945Z,25.83
2019-02-22T08:55:33.254Z,26.07
2019-02-22T08:58:01.564Z,24.30
2019-02-22T09:00:29.921Z,24.82
2019-02-22T09:02:58.214Z,26.65
2019-02-22T09:05:26.889Z,25.80
2019-02-22T09:07:55.198Z,24.75
2019-02-22T09:10:23.514Z,25.05
2019-02-22T09:12:51.829Z,24.23
2019-02-22T09:15:20.186Z,24.07
2019-02-22T09:17:48.479Z,25.30
2019-02-22T09:20:16.806Z,24.92
2019-02-22T09:22:45.111Z,24.35
2019-02-22T09:25:13.434Z,24.27
2019-02-22T09:27:41.730Z,22.95
2019-02-22T09:30:11.871Z,23.25
2019-02-22T09:32:40.198Z,23.38
2019-02-22T09:35:10.717Z,23.52
2019-02-22T09:37:39.092Z,23.55
2019-02-22T09:40:10.144Z,24.50
2019-02-22T09:42:38.902Z,24.47
2019-02-22T09:45:10.148Z,23.00
2019-02-22T09:47:38.477Z,23.52
2019-02-22T09:50:09.826Z,21.82
2019-02-22T09:52:38.158Z,20.00
2019-02-22T09:55:08.998Z,19.40
2019-02-22T09:57:37.566Z,20.55
2019-02-22T10:00:14.669Z,19.62
2019-02-22T10:02:44.931Z,20.62
2019-02-22T10:05:13.101Z,19.95
2019-02-22T10:07:41.395Z,20.75
2019-02-22T10:10:11.719Z,19.30
2019-02-22T10:12:40.026Z,19.12
2019-02-22T10:15:09.489Z,19.10
2019-02-22T10:17:37.797Z,20.80
2019-02-22T10:20:08.883Z,20.10
2019-02-22T10:22:37.191Z,15.20
2019-02-22T10:25:06.723Z,17.10
2019-02-22T10:27:35.318Z,16.17
2019-02-22T10:30:04.824Z,14.80
2019-02-22T10:32:33.157Z,15.88
2019-02-22T10:35:01.493Z,16.75
2019-02-22T10:37:29.800Z,15.80
2019-02-22T10:39:58.107Z,14.70
2019-02-22T10:42:26.723Z,16.00
2019-02-22T10:44:55.029Z,17.20
2019-02-22T10:47:23.355Z,17.25
2019-02-22T10:49:51.953Z,19.57
2019-02-22T10:52:20.287Z,19.73
2019-02-22T10:54:48.587Z,18.70
2019-02-22T10:57:16.898Z,17.40
2019-02-22T10:59:45.212Z,16.47
2019-02-22T11:02:13.542Z,17.50
2019-02-22T11:04:41.865Z,16.15
2019-02-22T11:07:10.176Z,15.90
2019-02-22T11:09:38.755Z,15.38
2019-02-22T11:12:07.098Z,15.40
2019-02-22T11:14:35.403Z,15.43
2019-02-22T11:17:03.771Z,16.15
2019-02-22T11:19:32.400Z,14.97
2019-02-22T11:22:01.080Z,13.62
2019-02-22T11:24:29.386Z,13.83
2019-02-22T11:26:58.047Z,14.28
2019-02-22T11:29:26.644Z,13.95
2019-02-22T11:31:55.064Z,14.60
2019-02-22T11:34:23.378Z,15.13
2019-02-22T11:36:51.708Z,15.10
2019-02-22T11:39:20.773Z,16.27
2019-02-22T11:41:49.087Z,15.53
2019-02-22T11:44:17.398Z,13.83
2019-02-22T11:46:45.716Z,14.43
2019-02-22T11:49:14.047Z,15.43
2019-02-22T11:51:42.366Z,15.83
2019-02-22T11:54:11.034Z,16.07
2019-02-22T11:56:39.329Z,17.10
2019-02-22T11:59:07.669Z,15.53
2019-02-22T12:01:36.035Z,14.83
2019-02-22T12:04:04.439Z,15.95
2019-02-22T12:06:32.728Z,17.60
2019-02-22T12:09:01.070Z,16.50
2019-02-22T12:11:29.361Z,16.32
2019-02-22T12:13:57.691Z,16.57
2019-02-22T12:16:26.016Z,16.00
2019-02-22T12:18:54.335Z,16.55
2019-02-22T12:21:23.194Z,14.50
2019-02-22T12:23:53.014Z,13.58
2019-02-22T12:26:21.423Z,15.28
2019-02-22T12:28:49.734Z,18.90
2019-02-22T12:31:18.052Z,18.85
2019-02-22T12:33:46.437Z,17.95
2019-02-22T12:36:14.755Z,17.67
2019-02-22T12:38:43.087Z,16.53
2019-02-22T12:41:11.466Z,16.97
2019-02-22T12:43:39.814Z,16.70
2019-02-22T12:46:08.148Z,17.92
2019-02-22T12:48:36.515Z,18.70
2019-02-22T12:51:04.843Z,14.83
2019-02-22T12:53:33.138Z,15.50
2019-02-22T12:56:01.457Z,15.50
2019-02-22T12:58:29.775Z,16.60
2019-02-22T13:00:58.092Z,16.80
2019-02-22T13:03:26.391Z,18.70
2019-02-22T13:05:54.729Z,18.77
2019-02-22T13:08:23.460Z,17.02
2019-02-22T13:10:51.795Z,15.72
2019-02-22T13:13:20.108Z,16.85
2019-02-22T13:15:48.413Z,15.80
2019-02-22T13:18:16.725Z,15.43
2019-02-22T13:20:45.040Z,16.57
2019-02-22T13:23:13.404Z,16.02
2019-02-22T13:25:41.717Z,16.73
2019-02-22T13:28:10.338Z,17.23
2019-02-22T13:30:38.939Z,17.30
2019-02-22T13:33:07.247Z,17.87
2019-02-22T13:35:35.558Z,17.82
2019-02-22T13:38:04.120Z,18.12
2019-02-22T13:40:32.557Z,21.65
2019-02-22T13:43:00.885Z,18.42
2019-02-22T13:45:29.218Z,17.90
2019-02-22T13:47:57.542Z,17.73
2019-02-22T13:50:25.858Z,14.50
2019-02-22T13:52:54.217Z,15.10
2019-02-22T13:55:22.831Z,16.75
2019-02-22T13:57:51.135Z,16.30
2019-02-22T14:00:20.284Z,16.82
2019-02-22T14:02:48.699Z,17.30
2019-02-22T14:05:17.101Z,18.05
2019-02-22T14:07:55.469Z,17.73
2019-02-22T14:10:24.493Z,18.42
2019-02-22T14:12:53.129Z,18.77
2019-02-22T14:15:22.021Z,18.50
2019-02-22T14:17:50.383Z,18.60
2019-02-22T14:20:19.390Z,17.92
2019-02-22T14:22:49.319Z,18.92
2019-02-22T14:25:17.715Z,18.07
2019-02-22T14:27:46.373Z,17.45
2019-02-22T14:30:18.206Z,17.25
2019-02-22T14:32:46.686Z,18.98
2019-02-22T14:35:14.989Z,19.05
2019-02-22T14:37:43.368Z,18.12
2019-02-22T14:40:12.753Z,19.73
2019-02-22T14:42:41.097Z,19.65
2019-02-22T14:45:10.740Z,19.32
2019-02-22T14:47:39.153Z,20.43
2019-02-22T14:50:13.172Z,19.48
2019-02-22T14:52:41.476Z,18.82
2019-02-22T14:55:10.070Z,26.30
2019-02-22T14:57:38.367Z,19.80
2019-02-22T15:00:12.300Z,20.05
2019-02-22T15:02:40.625Z,20.30
2019-02-22T15:05:10.072Z,20.65
2019-02-22T15:07:38.392Z,20.55
2019-02-22T15:10:08.990Z,20.57
2019-02-22T15:12:37.297Z,21.33
2019-02-22T15:15:21.087Z,20.50
2019-02-22T15:17:51.039Z,20.27
2019-02-22T15:20:19.338Z,20.48
2019-02-22T15:22:47.656Z,19.95
2019-02-22T15:25:17.439Z,19.57
2019-02-22T15:27:46.069Z,20.00
2019-02-22T15:30:16.095Z,19.82
2019-02-22T15:32:44.406Z,20.72
2019-02-22T15:35:15.337Z,20.08
2019-02-22T15:37:43.683Z,21.97
2019-02-22T15:40:12.770Z,22.15
2019-02-22T15:42:41.098Z,22.95
2019-02-22T15:45:17.697Z,23.35
2019-02-22T15:47:48.637Z,21.80
2019-02-22T15:50:16.979Z,22.20
2019-02-22T15:52:46.177Z,24.67
2019-02-22T15:55:14.614Z,23.93
2019-02-22T15:57:42.984Z,22.87
2019-02-22T16:00:14.771Z,24.27
2019-02-22T16:02:43.099Z,22.95
2019-02-22T16:05:13.109Z,23.22
2019-02-22T16:07:44.662Z,22.93
2019-02-22T16:10:11.638Z,21.02
2019-02-22T16:12:40.035Z,20.02
2019-02-22T16:15:10.110Z,20.45
2019-02-22T16:17:38.479Z,20.17
2019-02-22T16:20:08.133Z,21.00
2019-02-22T16:22:36.444Z,20.00
2019-02-22T16:25:06.294Z,20.27
2019-02-22T16:27:34.551Z,19.37
2019-02-22T16:30:03.080Z,21.55
2019-02-22T16:32:31.441Z,21.25
2019-02-22T16:34:59.765Z,20.17
2019-02-22T16:37:28.067Z,22.52
2019-02-22T16:39:56.379Z,21.23
2019-02-22T16:42:24.692Z,21.73
2019-02-22T16:44:53.000Z,21.85
2019-02-22T16:47:21.618Z,22.62
2019-02-22T16:49:50.319Z,21.10
2019-02-22T16:52:18.613Z,21.60
2019-02-22T16:54:46.909Z,22.32
2019-02-22T16:57:15.559Z,21.37
2019-02-22T16:59:44.114Z,22.90
2019-02-22T17:02:12.523Z,21.57
2019-02-22T17:04:40.817Z,21.57
2019-02-22T17:07:09.219Z,20.52
2019-02-22T17:09:37.654Z,19.50
2019-02-22T17:12:06.953Z,19.45
2019-02-22T17:14:35.331Z,20.70
2019-02-22T17:17:03.764Z,19.85
2019-02-22T17:19:32.067Z,19.25
2019-02-22T17:22:00.670Z,20.88
2019-02-22T17:24:28.978Z,20.10
2019-02-22T17:26:57.522Z,20.17
2019-02-22T17:29:25.947Z,19.42
2019-02-22T17:31:54.243Z,20.80
2019-02-22T17:34:22.574Z,20.72
2019-02-22T17:36:50.875Z,20.32
2019-02-22T17:39:19.257Z,21.40
2019-02-22T17:41:47.591Z,20.00
2019-02-22T17:44:16.057Z,21.30
2019-02-22T17:46:44.384Z,22.75
2019-02-22T17:49:12.743Z,21.97
2019-02-22T17:51:41.077Z,20.43
2019-02-22T17:54:09.473Z,21.30
2019-02-22T17:56:37.785Z,22.27
2019-02-22T17:59:06.348Z,21.60
2019-02-22T18:01:34.780Z,22.05
2019-02-22T18:04:03.094Z,21.93
2019-02-22T18:06:31.783Z,21.80
2019-02-22T18:09:00.215Z,22.30
2019-02-22T18:11:28.589Z,23.67
2019-02-22T18:13:57.040Z,22.90
2019-02-22T18:16:25.472Z,22.07
2019-02-22T18:18:54.091Z,21.40
2019-02-22T18:21:22.794Z,22.13
2019-02-22T18:23:51.088Z,20.90
2019-02-22T18:26:19.838Z,22.87
2019-02-22T18:28:48.146Z,22.67
2019-02-22T18:31:16.524Z,21.85
2019-02-22T18:33:44.883Z,21.60
2019-02-22T18:36:13.185Z,21.60
2019-02-22T18:38:41.528Z,22.20
2019-02-22T18:41:09.832Z,22.25
2019-02-22T18:43:38.155Z,22.70
2019-02-22T18:46:06.772Z,20.55
2019-02-22T18:48:35.187Z,20.40
2019-02-22T18:51:03.477Z,20.60
2019-02-22T18:53:31.793Z,21.42
2019-02-22T18:56:00.112Z,21.45
2019-02-22T18:58:28.504Z,21.65
2019-02-22T19:00:56.822Z,19.02
2019-02-22T19:03:25.167Z,18.07
2019-02-22T19:05:53.473Z,19.30
2019-02-22T19:08:31.835Z,18.57
2019-02-22T19:10:52.077Z,17.77
2019-02-22T19:13:20.391Z,18.47
2019-02-22T19:15:48.695Z,15.90
2019-02-22T19:18:17.264Z,15.85
2019-02-22T19:20:45.574Z,16.67
2019-02-22T19:23:13.901Z,16.12
2019-02-22T19:25:42.304Z,15.60
2019-02-22T19:28:10.958Z,16.37
2019-02-22T19:30:39.260Z,16.27
2019-02-22T19:33:07.585Z,15.90
2019-02-22T19:35:35.898Z,15.72
2019-02-22T19:38:04.648Z,14.70
2019-02-22T19:40:32.964Z,15.10
2019-02-22T19:43:01.635Z,16.17
2019-02-22T19:45:29.926Z,15.03
2019-02-22T19:47:58.274Z,15.13
2019-02-22T19:50:26.855Z,14.10
2019-02-22T19:52:55.186Z,14.55
2019-02-22T19:55:23.741Z,14.60
2019-02-22T19:57:52.043Z,15.30
2019-02-22T20:00:20.512Z,15.72
2019-02-22T20:02:49.177Z,14.80
2019-02-22T20:05:17.752Z,15.05
2019-02-22T20:07:46.063Z,15.40
2019-02-22T20:10:21.516Z,14.53
2019-02-22T20:12:50.162Z,13.50
2019-02-22T20:15:18.623Z,13.50
2019-02-22T20:17:54.222Z,14.00
2019-02-22T20:20:17.891Z,13.90
2019-02-22T20:22:46.299Z,14.07
2019-02-22T20:25:15.134Z,13.58
2019-02-22T20:27:43.464Z,14.80
2019-02-22T20:30:17.065Z,14.63
2019-02-22T20:32:45.388Z,14.95
2019-02-22T20:35:16.528Z,14.65
2019-02-22T20:37:52.543Z,14.45
2019-02-22T20:40:15.166Z,15.03
2019-02-22T20:42:43.702Z,14.90
2019-02-22T20:45:12.668Z,13.97
2019-02-22T20:47:41.212Z,14.95
2019-02-22T20:50:14.370Z,15.30
2019-02-22T20:52:42.673Z,14.93
2019-02-22T20:55:11.435Z,14.75
2019-02-22T20:57:40.035Z,14.75
2019-02-22T21:00:19.639Z,15.60
2019-02-22T21:02:48.241Z,16.45
2019-02-22T21:05:16.534Z,16.00
2019-02-22T21:07:44.873Z,17.02
2019-02-22T21:10:17.860Z,16.37
2019-02-22T21:12:46.168Z,16.90
2019-02-22T21:15:14.706Z,17.00
2019-02-22T21:17:43.071Z,17.00
2019-02-22T21:20:16.882Z,16.23
2019-02-22T21:22:45.451Z,16.97
2019-02-22T21:25:13.814Z,17.07
2019-02-22T21:27:42.125Z,18.35
2019-02-22T21:30:12.971Z,18.20
2019-02-22T21:32:41.282Z,18.60
2019-02-22T21:35:10.429Z,16.70
2019-02-22T21:37:40.070Z,16.87
2019-02-22T21:40:10.247Z,17.48
2019-02-22T21:42:38.558Z,17.35
2019-02-22T21:45:10.224Z,18.60
2019-02-22T21:47:38.524Z,17.80
2019-02-22T21:50:15.027Z,17.37
2019-02-22T21:52:43.487Z,17.53
2019-02-22T21:55:13.027Z,18.30
2019-02-22T21:57:41.339Z,18.73
2019-02-22T22:00:21.653Z,18.80
2019-02-22T22:02:50.318Z,19.40
2019-02-22T22:05:19.007Z,18.80
2019-02-22T22:07:47.670Z,19.48
2019-02-22T22:10:16.189Z,19.67
2019-02-22T22:12:44.480Z,19.20
2019-02-22T22:15:14.220Z,18.45
2019-02-22T22:17:42.562Z,18.95
2019-02-22T22:20:11.223Z,17.50
2019-02-22T22:22:39.916Z,18.40
2019-02-22T22:25:10.930Z,18.30
2019-02-22T22:27:39.251Z,18.10
2019-02-22T22:30:10.355Z,18.20
2019-02-22T22:32:38.659Z,19.07
2019-02-22T22:35:11.621Z,19.00
2019-02-22T22:37:40.040Z,17.73
2019-02-22T22:40:10.131Z,19.02
2019-02-22T22:42:38.432Z,19.10
2019-02-22T22:45:11.991Z,18.67
2019-02-22T22:47:40.282Z,18.75
2019-02-22T22:50:11.407Z,19.77
2019-02-22T22:52:39.776Z,18.03
2019-02-22T22:55:09.662Z,17.90
2019-02-22T22:57:37.967Z,18.77
2019-02-22T23:00:30.946Z,18.83
2019-02-22T23:02:59.234Z,19.23
2019-02-22T23:05:27.563Z,18.53
2019-02-22T23:07:55.884Z,18.62
2019-02-22T23:10:24.205Z,18.30
2019-02-22T23:12:52.510Z,19.73
2019-02-22T23:15:20.819Z,18.42
2019-02-22T23:17:49.121Z,17.97
2019-02-22T23:20:17.427Z,18.35
2019-02-22T23:22:45.758Z,18.32
2019-02-22T23:25:14.156Z,19.55
2019-02-22T23:27:42.457Z,17.98
2019-02-22T23:30:11.159Z,19.20
2019-02-22T23:32:39.465Z,18.57
2019-02-22T23:35:07.800Z,17.90
2019-02-22T23:37:36.094Z,18.07
2019-02-22T23:40:04.950Z,17.83
2019-02-22T23:42:33.235Z,19.30
2019-02-22T23:45:01.562Z,17.43
2019-02-22T23:47:29.847Z,17.60
2019-02-22T23:49:58.167Z,17.80
2019-02-22T23:52:27.185Z,19.07
2019-02-22T23:54:55.500Z,17.25
2019-02-22T23:57:23.811Z,17.90
2019-02-22T23:59:52.255Z,17.12
